MET5208 - Greenville - Spartanburg to Boston

Embraer ERJ-170LR
N924AG
2 hrs 00 mins
691 nm
Scheduled - Daily

Bid/PiRep Status

Bid was submitted on Jan 02 2017.

PiRep # 74570: Approved by Sean Doyle on January 2nd, 2017 15:08 UTC

Departure

Departing from
Greenville - Spartanburg (GSP)
Departure gate
Ramp
Scheduled Departure
GMT 1500
Local 1100
METAR KGSP 272153Z 18011KT 10SM CLR 25/11 A2993 RMK AO2 SLP127 T02500106
TAF KGSP 271736Z 2718/2818 21011KT P6SM SCT040 BKN110 FM272000 22011KT P6SM VCTS BKN045CB FM280100 20006KT P6SM VCSH BKN045 FM280600 19005KT P6SM VCSH BKN015 FM280800 21005KT 5SM BR BKN007 FM281400 23011KT P6SM BKN015

Arrival

Arriving at
Boston (BOS)
Arrival gate
Scheduled Arrival
GMT 1700
Local 1300

Route Map

Planning Resources

SPA V605 GENOD GSO J14 RIC
SPA RDU FAK OTT6
SPA J37 GVE J42 OTT RAVNN5
SPA JAC EVING LOOEY JAXSN CREWE FAK OGATE BRV OTT DEALE RAVNN
CEVVY SPA J37 GVE J42 OTT RAVNN5 COLUM
Route:
OFP Layout:
Units:
Detailed Navlog:
ETOPS Planning:
Plan Stepclimbs:
Runway Analysis:
Include NOTAMS:
FIR NOTAMS:
Flight Maps:

Return Flights

MET5207
Embraer ERJ-170LR
1230 GMT
MET5209
Embraer ERJ-170LR
2130 GMT

Popularity

Hub Current Bids PiReps this month Total PiReps
KMCI 0 0 2
KLAX 0 0 0
KBOS 0 0 2